createdAt,value
2019-02-11T00:08:33.595Z,1.66
2019-02-11T00:13:42.531Z,1.86
2019-02-11T00:24:00.466Z,1.87
2019-02-11T00:29:09.395Z,2.71
2019-02-11T00:34:18.450Z,3.66
2019-02-11T00:39:27.397Z,3.98
2019-02-11T00:44:36.335Z,3.72
2019-02-11T00:49:45.299Z,4.49
2019-02-11T00:54:54.250Z,2.89
2019-02-11T01:00:03.235Z,3.92
2019-02-11T01:05:12.194Z,4.91
2019-02-11T01:10:21.263Z,5.73
2019-02-11T01:15:30.219Z,6.58
2019-02-11T01:20:39.247Z,7.79
2019-02-11T01:25:48.202Z,8.32
2019-02-11T01:30:57.181Z,9.63
2019-02-11T01:36:06.124Z,10.42
2019-02-11T01:41:15.090Z,9.45
2019-02-11T01:46:24.106Z,7.84
2019-02-11T01:51:33.066Z,6.78
2019-02-11T01:56:42.007Z,6.90
2019-02-11T02:01:50.949Z,6.45
2019-02-11T02:06:59.910Z,5.52
2019-02-11T02:12:08.874Z,5.54
2019-02-11T02:17:17.847Z,6.30
2019-02-11T02:22:26.814Z,5.26
2019-02-11T02:27:35.796Z,5.31
2019-02-11T02:32:44.737Z,5.70
2019-02-11T02:37:53.718Z,5.27
2019-02-11T02:43:02.638Z,5.22
2019-02-11T02:48:11.576Z,4.94
2019-02-11T02:53:20.533Z,5.18
2019-02-11T02:58:29.450Z,5.38
2019-02-11T03:03:38.450Z,5.01
2019-02-11T03:08:47.395Z,4.95
2019-02-11T03:14:04.961Z,4.87
2019-02-11T03:19:04.894Z,5.06
2019-02-11T03:24:13.876Z,4.44
2019-02-11T03:29:22.870Z,5.37
2019-02-11T03:34:31.831Z,4.95
2019-02-11T03:39:40.758Z,4.69
2019-02-11T03:44:49.734Z,4.77
2019-02-11T03:49:58.694Z,5.10
2019-02-11T03:55:07.650Z,5.60
2019-02-11T04:00:16.699Z,5.09
2019-02-11T04:05:25.646Z,5.07
2019-02-11T04:10:34.606Z,5.47
2019-02-11T04:15:43.553Z,4.63
2019-02-11T04:20:52.499Z,5.07
2019-02-11T04:26:01.467Z,4.37
2019-02-11T04:31:10.418Z,4.60
2019-02-11T04:36:19.510Z,5.13
2019-02-11T04:41:28.450Z,5.54
2019-02-11T04:46:37.425Z,5.37
2019-02-11T04:51:46.394Z,5.35
2019-02-11T04:56:55.386Z,5.08
2019-02-11T05:02:04.355Z,5.18
2019-02-11T05:07:13.334Z,4.89
2019-02-11T05:12:22.260Z,4.46
2019-02-11T05:17:31.267Z,3.99
2019-02-11T05:22:40.207Z,4.45
2019-02-11T05:27:49.214Z,4.79
2019-02-11T05:32:58.153Z,4.55
2019-02-11T05:38:07.196Z,4.68
2019-02-11T05:43:16.143Z,5.22
2019-02-11T05:48:25.190Z,5.09
2019-02-11T05:53:34.114Z,4.18
2019-02-11T05:58:43.120Z,4.74
2019-02-11T06:03:52.053Z,4.59
2019-02-11T06:09:01.020Z,4.76
2019-02-11T06:14:09.962Z,5.00
2019-02-11T06:19:18.958Z,5.63
2019-02-11T06:24:27.894Z,5.21
2019-02-11T06:29:36.901Z,5.14
2019-02-11T06:34:45.875Z,4.90
2019-02-11T06:39:54.901Z,5.28
2019-02-11T06:45:12.544Z,5.69
2019-02-11T06:50:12.432Z,6.12
2019-02-11T06:55:21.386Z,6.18
2019-02-11T07:00:30.402Z,5.64
2019-02-11T07:05:39.366Z,7.78
2019-02-11T07:10:55.422Z,7.69
2019-02-11T07:15:56.908Z,6.46
2019-02-11T07:21:05.918Z,7.00
2019-02-11T07:26:14.850Z,6.64
2019-02-11T07:31:23.847Z,7.00
2019-02-11T07:36:32.795Z,7.10
2019-02-11T07:41:41.718Z,7.82
2019-02-11T07:46:50.702Z,7.10
2019-02-11T07:51:59.662Z,6.73
2019-02-11T07:57:08.678Z,7.13
2019-02-11T08:02:17.663Z,7.35
2019-02-11T08:07:26.672Z,7.52
2019-02-11T08:12:35.594Z,7.70
2019-02-11T08:17:44.546Z,7.61
2019-02-11T08:22:53.502Z,7.61
2019-02-11T08:28:02.543Z,7.52
2019-02-11T08:33:11.471Z,7.96
2019-02-11T08:38:20.530Z,8.61
2019-02-11T08:43:29.464Z,8.26
2019-02-11T08:48:38.462Z,8.37
2019-02-11T08:53:47.426Z,8.72
2019-02-11T08:58:56.371Z,8.62
2019-02-11T09:04:05.330Z,8.85
2019-02-11T09:09:14.335Z,9.11
2019-02-11T09:14:23.290Z,8.38
2019-02-11T09:19:32.264Z,7.44
2019-02-11T09:24:41.193Z,7.81
2019-02-11T09:29:50.155Z,7.90
2019-02-11T09:34:59.099Z,7.92
2019-02-11T09:40:08.102Z,7.08
2019-02-11T09:45:17.026Z,7.12
2019-02-11T09:50:26.062Z,7.90
2019-02-11T09:55:35.007Z,7.02
2019-02-11T10:00:44.057Z,8.56
2019-02-11T10:05:52.993Z,8.43
2019-02-11T10:11:01.982Z,6.73
2019-02-11T10:16:12.500Z,6.58
2019-02-11T10:21:19.513Z,6.35
2019-02-11T10:26:28.454Z,5.48
2019-02-11T10:31:37.642Z,6.42
2019-02-11T10:36:46.587Z,5.80
2019-02-11T10:41:55.562Z,5.69
2019-02-11T10:47:04.497Z,6.08
2019-02-11T10:52:13.471Z,6.91
2019-02-11T10:57:22.422Z,6.20
2019-02-11T11:02:31.375Z,4.67
2019-02-11T11:07:40.329Z,5.22
2019-02-11T11:12:49.359Z,5.05
2019-02-11T11:17:58.722Z,4.66
2019-02-11T11:23:07.890Z,5.18
2019-02-11T11:28:16.834Z,5.26
2019-02-11T11:33:25.822Z,4.81
2019-02-11T11:38:34.763Z,4.73
2019-02-11T12:50:41.032Z,3.24
2019-02-11T12:55:50.045Z,3.25
2019-02-11T13:00:59.017Z,2.81
2019-02-11T13:06:08.000Z,3.65
2019-02-11T13:11:16.964Z,3.95
2019-02-11T13:16:25.952Z,4.04
2019-02-11T13:21:34.911Z,3.46
2019-02-11T13:26:43.897Z,3.72
2019-02-11T13:31:52.837Z,2.87
2019-02-11T13:37:01.862Z,2.56
2019-02-11T13:42:10.816Z,2.98
2019-02-11T13:47:19.775Z,2.81
2019-02-11T13:52:28.717Z,2.65
2019-02-11T13:57:37.747Z,2.78
2019-02-11T14:02:46.715Z,3.29
2019-02-11T14:07:55.700Z,2.77
2019-02-11T14:13:04.616Z,3.43
2019-02-11T14:18:14.874Z,2.89
2019-02-11T14:23:22.145Z,3.13
2019-02-11T14:28:33.394Z,3.09
2019-02-11T14:33:30.837Z,2.97
2019-02-11T14:38:39.840Z,2.86
2019-02-11T14:43:48.779Z,3.23
2019-02-11T14:48:57.719Z,2.95
2019-02-11T14:54:06.670Z,2.85
2019-02-11T14:59:15.646Z,2.63
2019-02-11T15:04:24.590Z,2.86
2019-02-11T15:09:33.566Z,2.92
2019-02-11T15:14:42.515Z,3.15
2019-02-11T15:19:51.498Z,2.18
2019-02-11T15:25:00.456Z,2.88
2019-02-11T15:30:09.430Z,2.74
2019-02-11T15:35:18.362Z,3.80
2019-02-11T15:40:27.333Z,3.12
2019-02-11T15:45:36.274Z,2.34
2019-02-11T15:50:45.330Z,3.55
2019-02-11T15:55:54.266Z,3.36
2019-02-11T16:01:03.265Z,2.86
2019-02-11T16:06:12.231Z,2.82
2019-02-11T16:11:21.173Z,2.66
2019-02-11T16:16:30.127Z,3.12
2019-02-11T16:21:39.082Z,2.81
2019-02-11T16:26:48.043Z,2.82
2019-02-11T16:32:00.853Z,3.28
2019-02-11T16:37:05.486Z,3.53
2019-02-11T16:42:14.495Z,3.96
2019-02-11T16:47:24.514Z,3.63
2019-02-11T16:52:23.686Z,3.28
2019-02-11T16:57:32.629Z,3.81
2019-02-11T17:02:41.602Z,4.36
2019-02-11T17:07:50.551Z,4.17
2019-02-11T17:12:59.571Z,3.17
2019-02-11T17:18:08.491Z,3.88
2019-02-11T17:23:17.566Z,3.93
2019-02-11T17:28:26.510Z,3.72
2019-02-11T17:33:35.554Z,3.72
2019-02-11T17:38:44.514Z,3.50
2019-02-11T17:43:53.530Z,4.03
2019-02-11T17:49:02.468Z,3.90
2019-02-11T17:54:11.478Z,4.13
2019-02-11T17:59:20.431Z,4.28
2019-02-11T18:04:29.546Z,4.87
2019-02-11T18:09:38.494Z,3.66
2019-02-11T18:14:47.543Z,4.91
2019-02-11T18:19:56.466Z,4.12
2019-02-11T18:25:03.954Z,5.03
2019-02-11T18:30:12.906Z,4.84
2019-02-11T18:35:21.946Z,3.61
2019-02-11T18:40:30.902Z,4.71
2019-02-11T18:45:39.842Z,5.45
2019-02-11T18:50:48.811Z,5.97
2019-02-11T18:55:57.742Z,4.96
2019-02-11T19:01:06.686Z,5.53
2019-02-11T19:06:15.671Z,5.24
2019-02-11T19:11:24.618Z,5.71
2019-02-11T19:16:33.643Z,4.76
2019-02-11T19:21:42.571Z,4.82
2019-02-11T19:26:51.610Z,4.98
2019-02-11T19:32:00.550Z,5.42
2019-02-11T19:37:09.581Z,5.54
2019-02-11T19:42:18.535Z,5.88
2019-02-11T19:47:27.582Z,5.26
2019-02-11T19:52:36.570Z,4.94
2019-02-11T19:57:45.684Z,5.23
2019-02-11T20:02:54.674Z,5.41
2019-02-11T20:08:03.674Z,5.51
2019-02-11T20:13:12.646Z,5.80
2019-02-11T20:18:21.678Z,5.90
2019-02-11T20:23:30.671Z,5.48
2019-02-11T20:28:39.670Z,6.26
2019-02-11T20:33:48.666Z,6.60
2019-02-11T20:38:57.662Z,6.23
2019-02-11T20:44:06.654Z,7.16
2019-02-11T20:49:15.758Z,7.46
2019-02-11T20:54:24.714Z,7.71
2019-02-11T20:59:33.769Z,8.12
2019-02-11T21:04:42.734Z,8.12
2019-02-11T21:09:50.274Z,8.16
2019-02-11T21:14:59.217Z,8.68
2019-02-11T21:20:08.187Z,7.74
2019-02-11T21:25:17.134Z,6.98
2019-02-11T21:30:26.103Z,7.19
2019-02-11T21:35:35.098Z,6.95
2019-02-11T21:40:44.183Z,6.53
2019-02-11T21:45:53.145Z,6.29
2019-02-11T21:51:02.150Z,6.16
2019-02-11T21:56:11.095Z,6.81
2019-02-11T22:01:20.058Z,7.28
2019-02-11T22:06:29.106Z,7.17
2019-02-11T22:11:38.035Z,6.96
2019-02-11T22:16:46.990Z,6.66
2019-02-11T22:21:56.071Z,6.69
2019-02-11T22:27:04.985Z,6.29
2019-02-11T22:32:14.214Z,5.63
2019-02-11T22:37:23.187Z,6.03
2019-02-11T22:42:32.174Z,5.80
2019-02-11T22:47:41.141Z,5.62
2019-02-11T22:52:50.102Z,5.51
2019-02-11T22:57:59.027Z,5.99
2019-02-11T23:03:08.022Z,7.10
2019-02-11T23:08:16.949Z,5.81
2019-02-11T23:13:25.917Z,6.28
2019-02-11T23:18:34.830Z,6.63
2019-02-11T23:23:43.834Z,5.82
2019-02-11T23:28:52.798Z,5.61
2019-02-11T23:34:01.832Z,7.24
2019-02-11T23:39:10.782Z,5.87
2019-02-11T23:44:19.844Z,5.73
2019-02-11T23:49:28.762Z,6.43
2019-02-11T23:54:37.799Z,6.69
2019-02-11T23:59:46.735Z,7.55
